Time;durP1;ratioP1;P1;durP2;ratioP2;P2;SDS_P1;SDS_P2;PMS_P1;PMS_P2;Temp;Humidity;BMP_temperature;BMP_pressure;BME280_temperature;BME280_humidity;BME280_pressure;Samples;Min_cycle;Max_cycle;Signal;HPM_P1;HPM_P2
2022/01/01 00:02:19;;;;;;;;;56.50;44.00;;;;;11.96;88.08;102348.94;5052789;28;45362;-71
2022/01/01 00:04:44;;;;;;;;;56.75;43.25;;;;;11.88;87.85;102345.59;5052761;28;46469;-71
2022/01/01 00:07:10;;;;;;;;;60.50;46.00;;;;;11.87;87.94;102356.19;5052776;28;45361;-70
2022/01/01 00:09:36;;;;;;;;;57.50;44.75;;;;;11.84;88.04;102356.22;5052625;28;45376;-71
2022/01/01 00:12:02;;;;;;;;;56.75;43.75;;;;;11.80;88.14;102355.41;5040212;28;45481;-71
2022/01/01 00:14:29;;;;;;;;;57.50;44.75;;;;;11.75;88.36;102355.50;5052247;28;47334;-71
2022/01/01 00:16:54;;;;;;;;;55.75;45.00;;;;;11.73;88.29;102354.66;5052534;28;45857;-71
2022/01/01 00:19:19;;;;;;;;;50.75;40.50;;;;;11.71;88.14;102355.63;5052890;28;45438;-71
2022/01/01 00:21:45;;;;;;;;;49.25;39.25;;;;;11.62;88.69;102340.00;5052358;28;45403;-71
2022/01/01 00:24:11;;;;;;;;;59.25;44.50;;;;;11.64;88.33;102357.53;5047427;28;46535;-71
2022/01/01 00:26:36;;;;;;;;;56.00;44.25;;;;;11.64;88.63;102357.53;5054120;28;45560;-71
2022/01/01 00:29:02;;;;;;;;;58.75;44.25;;;;;11.62;88.84;102342.63;5063569;28;47398;-71
2022/01/01 00:31:29;;;;;;;;;53.75;42.25;;;;;11.68;89.29;102347.78;5052422;28;45573;-71
2022/01/01 00:33:54;;;;;;;;;50.75;41.00;;;;;11.69;89.43;102355.66;5054356;28;45631;-71
2022/01/01 00:36:19;;;;;;;;;51.75;40.75;;;;;11.73;89.18;102352.03;5051322;28;45308;-70
2022/01/01 00:38:45;;;;;;;;;51.50;41.00;;;;;11.76;89.00;102351.13;5052468;28;45365;-71
2022/01/01 00:41:10;;;;;;;;;63.50;44.75;;;;;11.80;88.79;102350.16;5050067;28;45574;-71
2022/01/01 00:43:36;;;;;;;;;54.50;41.00;;;;;11.83;88.52;102349.22;5051880;28;46358;-71
2022/01/01 00:46:01;;;;;;;;;48.50;38.50;;;;;11.87;88.57;102350.91;5056279;28;45671;-71
2022/01/01 00:48:27;;;;;;;;;56.25;41.75;;;;;11.85;88.60;102342.16;5051182;28;45587;-71
2022/01/01 00:50:52;;;;;;;;;51.25;39.00;;;;;11.98;88.36;102356.78;5051272;28;45388;-71
2022/01/01 00:53:17;;;;;;;;;61.75;47.00;;;;;12.04;88.90;102359.28;5051855;28;46214;-71
2022/01/01 00:55:43;;;;;;;;;52.00;41.50;;;;;12.07;88.24;102363.63;5053517;28;45503;-71
2022/01/01 00:58:08;;;;;;;;;57.25;44.50;;;;;12.08;88.74;102360.94;5057251;28;45381;-71
2022/01/01 01:00:33;;;;;;;;;55.25;43.75;;;;;12.12;88.82;102369.66;5055960;28;45397;-71
2022/01/01 01:02:59;;;;;;;;;58.00;47.25;;;;;12.13;88.64;102361.72;5050932;28;45389;-71
2022/01/01 01:05:24;;;;;;;;;67.75;48.25;;;;;12.16;88.27;102355.47;5054334;28;45483;-70
2022/01/01 01:07:50;;;;;;;;;55.75;44.75;;;;;12.16;88.14;102361.66;5053539;28;45502;-71
2022/01/01 01:10:15;;;;;;;;;66.25;49.75;;;;;12.20;87.89;102365.91;5056401;28;45508;-71
2022/01/01 01:12:47;;;;;;;;;58.25;47.00;;;;;12.26;88.11;102362.28;5060620;28;46101;-71
2022/01/01 01:15:17;;;;;;;;;57.00;43.25;;;;;12.19;87.99;102343.13;5058307;28;45466;-72
2022/01/01 01:17:49;;;;;;;;;60.00;46.50;;;;;12.28;87.79;102353.44;5057492;28;45701;-71
2022/01/01 01:20:16;;;;;;;;;58.00;43.25;;;;;12.21;87.55;102343.94;5054683;28;45364;-71
2022/01/01 01:22:41;;;;;;;;;53.50;42.75;;;;;12.18;87.80;102359.84;5054579;28;46235;-71
2022/01/01 01:25:08;;;;;;;;;52.00;42.75;;;;;12.13;88.06;102356.44;5070481;28;45423;-71
2022/01/01 01:27:35;;;;;;;;;56.25;42.00;;;;;12.14;88.33;102355.53;5053770;28;45219;-71
2022/01/01 01:30:02;;;;;;;;;49.50;40.50;;;;;12.12;88.49;102345.94;5048673;28;45297;-71
2022/01/01 01:32:27;;;;;;;;;51.25;41.25;;;;;12.16;87.80;102360.75;5055033;28;46578;-71
2022/01/01 01:34:53;;;;;;;;;53.75;39.25;;;;;12.15;88.23;102353.75;5054469;28;45341;-71
2022/01/01 01:37:18;;;;;;;;;40.25;37.25;;;;;12.13;87.96;102360.84;5064037;27;45482;-71
2022/01/01 01:39:43;;;;;;;;;40.00;34.75;;;;;12.09;88.28;102352.13;5055973;28;45371;-71
2022/01/01 01:42:09;;;;;;;;;50.00;40.75;;;;;12.06;87.83;102356.59;5054492;28;45367;-71
2022/01/01 01:44:42;;;;;;;;;50.75;37.75;;;;;12.00;88.17;102340.03;5051021;28;45573;-71
2022/01/01 01:47:14;;;;;;;;;52.00;40.00;;;;;11.95;88.23;102348.94;5054521;28;45564;-71
2022/01/01 01:49:40;;;;;;;;;44.25;37.25;;;;;11.93;88.70;102356.03;5051456;28;45635;-71
2022/01/01 01:52:07;;;;;;;;;40.25;36.75;;;;;11.86;88.41;102346.53;5056463;28;46712;-71
2022/01/01 01:54:33;;;;;;;;;46.75;37.75;;;;;11.74;88.25;102342.34;5054963;28;45875;-71
2022/01/01 01:56:58;;;;;;;;;48.75;37.75;;;;;11.74;88.57;102353.78;5058240;28;45418;-71
2022/01/01 01:59:24;;;;;;;;;47.75;38.00;;;;;11.70;88.75;102356.53;5064219;28;45409;-71
2022/01/01 02:01:50;;;;;;;;;52.50;40.00;;;;;11.64;88.52;102344.34;5054218;28;45579;-71
2022/01/01 02:04:16;;;;;;;;;41.75;36.50;;;;;11.60;88.86;102349.72;5054509;28;49226;-71
2022/01/01 02:06:41;;;;;;;;;49.25;39.00;;;;;11.55;88.63;102343.69;5055183;28;45323;-71
2022/01/01 02:09:09;;;;;;;;;36.25;35.00;;;;;11.50;88.20;102347.28;5053922;28;45295;-71
2022/01/01 02:11:34;;;;;;;;;47.00;37.75;;;;;11.46;89.09;102352.63;5057479;27;45657;-71
2022/01/01 02:14:03;;;;;;;;;41.25;33.00;;;;;11.41;89.49;102352.72;5055448;28;45407;-70
2022/01/01 02:16:38;;;;;;;;;47.25;35.50;;;;;11.38;89.41;102346.63;5054281;28;45374;-71
2022/01/01 02:19:03;;;;;;;;;46.50;35.00;;;;;11.30;89.16;102340.69;5055597;28;45319;-71
2022/01/01 02:21:29;;;;;;;;;40.75;35.00;;;;;11.30;89.39;102348.59;5046149;28;46731;-71
2022/01/01 02:23:59;;;;;;;;;39.25;35.25;;;;;11.28;89.09;102353.03;5047498;28;45387;-71
2022/01/01 02:26:33;;;;;;;;;42.75;36.50;;;;;11.21;89.21;102347.00;5056468;27;46013;-71
2022/01/01 02:28:59;;;;;;;;;36.25;33.00;;;;;11.19;89.28;102348.78;5066792;27;45470;-71
2022/01/01 02:31:25;;;;;;;;;44.25;36.00;;;;;11.16;89.29;102344.44;5054067;28;46187;-70
2022/01/01 02:33:51;;;;;;;;;39.75;32.75;;;;;11.11;89.38;102332.28;5055457;28;45903;-70
2022/01/01 02:36:28;;;;;;;;;36.25;31.25;;;;;11.11;89.58;102334.91;5054358;28;45501;-70
2022/01/01 02:38:54;;;;;;;;;40.00;35.25;;;;;11.04;89.02;102331.53;5058131;28;45508;-70
2022/01/01 02:41:19;;;;;;;;;45.00;35.50;;;;;11.00;89.02;102319.34;5052554;28;46391;-70
2022/01/01 02:43:45;;;;;;;;;38.00;33.25;;;;;11.00;89.55;102329.84;5054239;28;45418;-71
2022/01/01 02:46:10;;;;;;;;;42.25;35.75;;;;;10.99;89.29;102314.97;5054537;28;45336;-71
2022/01/01 02:48:36;;;;;;;;;39.50;32.00;;;;;10.94;89.21;102315.06;5055450;28;45601;-71
2022/01/01 02:51:01;;;;;;;;;34.75;29.00;;;;;10.94;89.72;102317.69;5053741;28;45478;-70
2022/01/01 02:53:27;;;;;;;;;40.75;33.25;;;;;10.88;89.56;102309.06;5053348;28;45275;-70
2022/01/01 02:55:52;;;;;;;;;38.33;33.00;;;;;10.86;89.16;102311.72;5052378;28;51147;-70
2022/01/01 02:58:17;;;;;;;;;42.75;35.00;;;;;10.85;89.14;102317.00;5069515;28;45473;-70
2022/01/01 03:00:42;;;;;;;;;42.75;36.00;;;;;10.84;89.65;102325.78;5055065;28;45597;-70
2022/01/01 03:03:08;;;;;;;;;37.25;32.00;;;;;10.73;89.10;102314.59;5056693;27;46774;-71
2022/01/01 03:05:35;;;;;;;;;43.25;35.00;;;;;10.79;89.39;102330.25;5061386;28;45414;-71
2022/01/01 03:08:01;;;;;;;;;35.50;32.50;;;;;10.78;89.53;102334.66;5059884;28;45548;-71
2022/01/01 03:10:26;;;;;;;;;32.25;27.25;;;;;10.74;89.25;102325.09;5053290;28;46293;-71
2022/01/01 03:12:51;;;;;;;;;36.75;28.75;;;;;10.75;89.32;102334.69;5054153;28;61275;-71
2022/01/01 03:15:17;;;;;;;;;34.50;29.00;;;;;10.74;89.48;102329.47;5054541;28;45489;-71
2022/01/01 03:17:42;;;;;;;;;36.75;28.00;;;;;10.64;89.38;102315.63;5053715;28;45509;-71
2022/01/01 03:20:08;;;;;;;;;31.75;27.50;;;;;10.73;89.67;102327.75;5053401;28;46255;-71
2022/01/01 03:22:34;;;;;;;;;34.25;29.75;;;;;10.73;89.70;102327.75;5053150;28;45348;-71
2022/01/01 03:24:59;;;;;;;;;41.25;32.50;;;;;10.73;89.61;102327.75;5062415;28;45466;-71
2022/01/01 03:27:24;;;;;;;;;32.75;26.75;;;;;10.75;89.88;102328.56;5063201;28;45545;-71
2022/01/01 03:29:50;;;;;;;;;32.50;27.00;;;;;10.75;90.01;102339.97;5059723;28;46105;-71
2022/01/01 03:32:15;;;;;;;;;37.50;25.75;;;;;10.74;89.96;102332.09;5049779;28;45419;-71
2022/01/01 03:34:42;;;;;;;;;33.25;29.25;;;;;10.79;90.20;102346.91;5053996;28;45382;-71
2022/01/01 03:37:07;;;;;;;;;36.25;30.25;;;;;10.79;90.46;102340.78;5063712;28;45316;-71
2022/01/01 03:39:33;;;;;;;;;33.50;27.75;;;;;10.75;90.30;102331.22;5052846;28;46329;-70
2022/01/01 03:41:58;;;;;;;;;37.50;28.00;;;;;10.74;90.05;102327.72;5052886;28;45576;-71
2022/01/01 03:44:23;;;;;;;;;31.50;25.50;;;;;10.76;90.18;102328.56;5056703;28;45581;-71
2022/01/01 03:46:49;;;;;;;;;34.75;27.75;;;;;10.78;90.29;102328.53;5067026;28;45355;-71
2022/01/01 03:49:14;;;;;;;;;36.00;30.75;;;;;10.79;90.37;102322.38;5050567;28;47336;-71
2022/01/01 03:51:41;;;;;;;;;42.50;30.75;;;;;10.83;90.36;102310.91;5053750;28;45275;-71
2022/01/01 03:54:06;;;;;;;;;38.00;30.00;;;;;10.87;90.25;102320.47;5052878;28;45641;-71
2022/01/01 03:56:32;;;;;;;;;37.25;28.00;;;;;10.86;90.18;102316.13;5053797;28;45443;-71
2022/01/01 03:58:57;;;;;;;;;34.50;31.00;;;;;10.90;90.12;102315.16;5066127;28;45427;-71
2022/01/01 04:01:22;;;;;;;;;36.75;32.75;;;;;10.89;90.32;102311.66;5052412;28;45523;-71
2022/01/01 04:03:48;;;;;;;;;38.25;32.25;;;;;10.96;90.58;102320.28;5053891;28;45654;-71
2022/01/01 04:06:13;;;;;;;;;35.00;30.00;;;;;10.90;90.00;102305.50;5053206;28;45488;-71
2022/01/01 04:08:38;;;;;;;;;42.25;34.75;;;;;10.91;90.44;102303.72;5055611;28;46561;-70
2022/01/01 04:11:04;;;;;;;;;31.25;28.50;;;;;11.01;90.71;102321.06;5052421;28;45363;-70
2022/01/01 04:13:29;;;;;;;;;42.25;30.50;;;;;10.95;90.46;102303.63;5052837;28;45576;-71
2022/01/01 04:15:55;;;;;;;;;29.50;22.50;;;;;11.05;90.86;102317.47;5048276;28;45386;-71
2022/01/01 04:18:38;;;;;;;;;39.50;33.00;;;;;11.07;90.83;102305.19;5053238;28;46349;-71
2022/01/01 04:21:06;;;;;;;;;33.00;29.00;;;;;11.08;90.63;102306.03;5051552;28;45440;-71
2022/01/01 04:23:31;;;;;;;;;40.00;29.25;;;;;11.14;90.65;102312.03;5052337;28;45454;-71
2022/01/01 04:25:57;;;;;;;;;24.00;22.33;;;;;11.17;90.50;102319.00;5035433;28;51332;-71
2022/01/01 04:28:22;;;;;;;;;33.50;30.00;;;;;11.16;90.99;102315.50;5065268;27;47802;-71
2022/01/01 04:30:47;;;;;;;;;31.00;26.25;;;;;11.16;90.67;102312.00;5055481;28;45666;-71
2022/01/01 04:33:13;;;;;;;;;31.75;25.25;;;;;11.15;90.89;102319.03;5055896;28;45528;-71
2022/01/01 04:35:38;;;;;;;;;32.75;24.50;;;;;11.13;90.80;102317.34;5058092;28;45430;-71
2022/01/01 04:38:04;;;;;;;;;28.25;24.75;;;;;11.12;91.05;102319.13;5056043;28;46264;-71
2022/01/01 04:40:30;;;;;;;;;28.00;22.25;;;;;10.95;90.67;102281.72;5060589;27;45831;-71
2022/01/01 04:42:55;;;;;;;;;27.00;22.50;;;;;11.14;90.62;102317.31;5059322;28;45648;-71
2022/01/01 04:45:20;;;;;;;;;32.50;29.00;;;;;11.12;90.84;102312.97;5056241;28;45824;-71
2022/01/01 04:47:46;;;;;;;;;33.00;26.00;;;;;11.12;90.62;102316.47;5040695;28;49257;-71
2022/01/01 04:50:11;;;;;;;;;27.50;25.25;;;;;11.15;90.58;102313.78;5060816;28;45624;-71
2022/01/01 04:52:36;;;;;;;;;34.00;26.00;;;;;11.14;90.42;102309.41;5062696;28;47850;-71
2022/01/01 04:55:02;;;;;;;;;30.75;24.25;;;;;11.11;90.40;102312.09;5072919;27;45330;-71
2022/01/01 04:57:30;;;;;;;;;31.25;22.75;;;;;11.04;89.82;102321.00;5064729;28;47131;-71
2022/01/01 05:00:00;;;;;;;;;32.00;27.00;;;;;10.98;90.18;102315.88;5060191;28;45935;-71
2022/01/01 05:02:26;;;;;;;;;24.25;20.00;;;;;10.89;90.11;102316.06;5054934;28;45600;-71
2022/01/01 05:04:52;;;;;;;;;25.75;23.25;;;;;10.80;90.27;102303.94;5067760;27;45498;-71
2022/01/01 05:07:17;;;;;;;;;25.50;22.00;;;;;10.77;90.29;102303.13;5059337;28;45637;-71
2022/01/01 05:09:42;;;;;;;;;23.75;23.50;;;;;10.76;90.28;102309.31;5066455;28;48017;-71
2022/01/01 05:12:08;;;;;;;;;25.33;22.00;;;;;10.74;90.36;102305.81;5058307;28;54240;-71
2022/01/01 05:14:34;;;;;;;;;24.75;21.00;;;;;10.71;90.59;102315.50;5056481;28;45482;-71
2022/01/01 05:17:00;;;;;;;;;28.25;22.00;;;;;10.70;90.41;102308.53;5057239;28;46430;-71
2022/01/01 05:19:25;;;;;;;;;21.00;18.50;;;;;10.74;90.62;102321.59;5054608;28;45375;-71
2022/01/01 05:21:55;;;;;;;;;25.25;22.00;;;;;10.72;90.47;102311.09;5058630;28;45620;-71
2022/01/01 05:24:21;;;;;;;;;25.75;23.75;;;;;10.76;90.29;102317.19;5056286;28;46881;-71
2022/01/01 05:26:47;;;;;;;;;24.75;21.25;;;;;10.76;90.05;102318.06;5058277;28;45618;-71
2022/01/01 05:29:13;;;;;;;;;24.25;22.25;;;;;10.71;89.96;102318.13;5065919;27;45443;-71
2022/01/01 05:31:38;;;;;;;;;25.50;23.75;;;;;10.71;90.19;102320.75;5055313;28;45396;-71
2022/01/01 05:34:03;;;;;;;;;31.25;25.50;;;;;10.69;90.27;102314.66;5064945;28;45482;-71
2022/01/01 05:36:30;;;;;;;;;23.75;21.25;;;;;10.69;90.49;102322.53;5062359;27;45565;-71
2022/01/01 05:38:55;;;;;;;;;29.50;21.25;;;;;10.64;90.55;102313.84;5058431;28;45505;-71
2022/01/01 05:41:21;;;;;;;;;32.25;24.25;;;;;10.64;90.17;102319.13;5057571;28;45473;-71
2022/01/01 05:43:46;;;;;;;;;31.00;25.50;;;;;10.64;89.97;102313.00;5054647;28;45351;-71
2022/01/01 05:46:11;;;;;;;;;28.50;23.00;;;;;10.61;90.39;102305.19;5058872;28;45597;-71
2022/01/01 05:48:38;;;;;;;;;31.25;27.50;;;;;10.58;90.24;102300.84;5055777;28;48675;-71
2022/01/01 05:51:04;;;;;;;;;29.00;22.50;;;;;10.56;90.39;102301.78;5054125;28;45633;-71
2022/01/01 05:53:29;;;;;;;;;33.25;26.00;;;;;10.49;90.28;102295.72;5054689;28;45600;-71
2022/01/01 05:55:54;;;;;;;;;25.25;22.25;;;;;10.53;90.58;102293.94;5055919;28;56469;-71
2022/01/01 05:58:19;;;;;;;;;33.75;29.25;;;;;10.54;90.53;102293.03;5036660;28;47845;-71
2022/01/01 06:00:45;;;;;;;;;23.00;17.50;;;;;10.45;90.25;102283.56;5055868;28;47829;-70
2022/01/01 06:03:10;;;;;;;;;33.75;25.25;;;;;10.57;90.47;102291.22;5059305;28;45399;-70
2022/01/01 06:05:35;;;;;;;;;25.50;21.75;;;;;10.62;90.35;102292.00;5054031;28;46533;-71
2022/01/01 06:08:01;;;;;;;;;36.00;29.50;;;;;10.63;90.36;102290.22;5059455;28;47392;-71
2022/01/01 06:10:27;;;;;;;;;35.25;28.25;;;;;10.66;90.35;102292.81;5056161;28;45759;-71
2022/01/01 06:12:53;;;;;;;;;31.50;25.00;;;;;10.68;90.24;102298.91;5056256;28;45541;-71
2022/01/01 06:15:19;;;;;;;;;34.75;26.00;;;;;10.69;90.07;102293.59;5064168;28;46316;-71
2022/01/01 06:17:45;;;;;;;;;31.75;23.50;;;;;10.73;90.06;102288.31;5058935;28;45952;-71
2022/01/01 06:20:11;;;;;;;;;31.75;25.75;;;;;10.74;89.96;102295.28;5057323;28;45457;-71
2022/01/01 06:22:37;;;;;;;;;31.50;24.25;;;;;10.76;90.04;102294.38;5054383;28;45294;-71
2022/01/01 06:25:03;;;;;;;;;28.75;23.25;;;;;10.77;90.08;102296.13;5060171;28;45453;-71
2022/01/01 06:27:28;;;;;;;;;29.75;20.50;;;;;10.82;89.63;102285.50;5062512;27;46191;-71
2022/01/01 06:29:54;;;;;;;;;30.50;21.25;;;;;10.79;89.54;102291.69;5053815;28;45375;-71
2022/01/01 06:32:19;;;;;;;;;35.00;27.00;;;;;10.77;89.43;102274.22;5054048;28;45387;-71
2022/01/01 06:34:44;;;;;;;;;33.50;24.00;;;;;10.86;89.58;102293.31;5053951;28;45541;-71
2022/01/01 06:37:10;;;;;;;;;44.00;26.75;;;;;10.87;89.56;102295.03;5062742;28;46790;-71
2022/01/01 06:39:35;;;;;;;;;31.00;26.50;;;;;10.84;89.51;102281.94;5056756;28;45592;-71
2022/01/01 06:42:01;;;;;;;;;25.75;22.50;;;;;10.89;89.54;102293.25;5055276;28;45518;-71
2022/01/01 06:44:26;;;;;;;;;30.25;27.00;;;;;10.92;89.09;102290.56;5052155;28;46528;-71
2022/01/01 06:46:53;;;;;;;;;30.50;22.25;;;;;10.92;89.21;102285.31;5062453;28;45732;-71
2022/01/01 06:49:18;;;;;;;;;24.25;21.00;;;;;10.93;88.97;102289.66;5054239;28;45482;-71
2022/01/01 06:51:43;;;;;;;;;24.50;21.75;;;;;10.93;89.08;102287.03;5055047;28;45442;-71
2022/01/01 06:54:09;;;;;;;;;22.50;21.00;;;;;10.91;88.77;102285.31;5052417;28;50040;-71
2022/01/01 06:56:34;;;;;;;;;33.50;24.75;;;;;10.83;88.80;102284.63;5060319;27;45523;-71
2022/01/01 06:58:59;;;;;;;;;26.00;21.50;;;;;10.76;88.79;102283.00;5058939;28;45505;-71
2022/01/01 07:01:25;;;;;;;;;34.00;25.00;;;;;10.55;88.66;102253.59;5050443;28;45551;-70
2022/01/01 07:03:50;;;;;;;;;33.00;24.00;;;;;10.56;88.95;102276.34;5053527;28;45431;-70
2022/01/01 07:06:15;;;;;;;;;22.50;21.25;;;;;10.48;88.66;102277.38;5053036;28;45256;-70
2022/01/01 07:08:41;;;;;;;;;26.75;19.75;;;;;10.41;89.30;102277.47;5058387;27;45604;-71
2022/01/01 07:11:06;;;;;;;;;24.75;23.50;;;;;10.36;89.26;102279.31;5053579;28;48071;-71
2022/01/01 07:13:32;;;;;;;;;30.50;22.50;;;;;10.32;89.04;102282.03;5061238;27;45503;-71
2022/01/01 07:15:57;;;;;;;;;32.00;24.50;;;;;10.27;89.07;102282.09;5054711;28;45284;-71
2022/01/01 07:18:22;;;;;;;;;32.25;24.25;;;;;10.19;89.07;102269.06;5038940;28;45445;-71
2022/01/01 07:20:48;;;;;;;;;23.25;19.25;;;;;10.16;89.45;102281.38;5056951;28;47869;-71
2022/01/01 07:23:13;;;;;;;;;27.50;20.75;;;;;10.13;89.35;102284.94;5052478;28;45576;-71
2022/01/01 07:25:38;;;;;;;;;28.75;24.00;;;;;10.09;89.42;102293.75;5065752;27;45444;-71
2022/01/01 07:28:04;;;;;;;;;25.25;18.25;;;;;10.08;89.59;102288.53;5061767;28;45438;-71
2022/01/01 07:30:30;;;;;;;;;30.75;23.75;;;;;10.05;89.27;102292.06;5052637;28;45666;-71
2022/01/01 07:32:55;;;;;;;;;25.50;20.50;;;;;10.00;89.36;102290.41;5058151;28;46994;-71
2022/01/01 07:35:21;;;;;;;;;28.50;25.50;;;;;10.02;89.38;102292.09;5052914;28;45388;-71
2022/01/01 07:37:48;;;;;;;;;24.50;20.00;;;;;9.99;89.53;102288.69;5052682;28;45588;-71
2022/01/01 07:40:15;;;;;;;;;28.75;22.00;;;;;9.92;89.61;102286.16;5059721;28;45394;-71
2022/01/01 07:42:42;;;;;;;;;23.00;20.75;;;;;9.97;89.56;102288.72;5053114;28;45998;-71
2022/01/01 07:45:08;;;;;;;;;24.00;21.75;;;;;9.97;89.68;102290.44;5056736;28;46725;-70
2022/01/01 07:47:34;;;;;;;;;32.25;21.00;;;;;9.92;89.61;102287.91;5059260;28;45493;-70
2022/01/01 07:49:59;;;;;;;;;30.50;20.75;;;;;9.97;89.53;102291.34;5053836;28;45461;-70
2022/01/01 07:52:25;;;;;;;;;25.75;20.00;;;;;9.97;89.45;102293.06;5063237;27;45952;-70
2022/01/01 07:54:50;;;;;;;;;19.75;18.00;;;;;9.97;89.50;102282.56;5050039;28;51875;-70
2022/01/01 07:57:15;;;;;;;;;21.50;19.00;;;;;9.98;89.51;102297.47;5054343;28;45279;-70
2022/01/01 07:59:41;;;;;;;;;23.75;19.00;;;;;9.98;88.98;102292.19;5053219;28;45442;-71
2022/01/01 08:02:06;;;;;;;;;26.00;19.00;;;;;10.00;88.98;102286.03;5053180;28;45466;-71
2022/01/01 08:04:31;;;;;;;;;24.00;18.50;;;;;10.04;89.00;102286.84;5057668;28;45570;-71
2022/01/01 08:06:57;;;;;;;;;20.75;18.75;;;;;10.08;88.83;102292.03;5062508;28;45350;-71
2022/01/01 08:09:22;;;;;;;;;26.50;20.00;;;;;10.14;88.89;102298.94;5056620;28;45512;-71
2022/01/01 08:11:49;;;;;;;;;22.25;17.00;;;;;10.20;88.78;102291.81;5056707;28;46303;-71
2022/01/01 08:14:15;;;;;;;;;19.00;16.75;;;;;10.25;88.65;102296.19;5055936;28;45525;-71
2022/01/01 08:17:01;;;;;;;;;22.00;17.00;;;;;10.31;88.45;102290.81;5059244;28;47063;-71
2022/01/01 08:19:27;;;;;;;;;19.75;17.50;;;;;10.38;88.29;102292.44;5064929;28;45469;-71
2022/01/01 08:21:54;;;;;;;;;26.75;20.25;;;;;10.45;88.17;102294.94;5058682;28;46525;-71
2022/01/01 08:24:19;;;;;;;;;18.50;16.25;;;;;10.49;88.28;102287.84;5057915;28;45593;-71
2022/01/01 08:26:45;;;;;;;;;26.25;18.25;;;;;10.61;87.86;102294.66;5059888;28;45480;-71
2022/01/01 08:29:11;;;;;;;;;17.75;15.50;;;;;10.70;87.77;102295.38;5058832;28;45545;-71
2022/01/01 08:31:36;;;;;;;;;18.75;16.00;;;;;10.81;87.92;102286.41;5059505;28;46564;-71
2022/01/01 08:34:02;;;;;;;;;20.75;18.50;;;;;10.91;87.39;102277.41;5039159;28;45510;-71
2022/01/01 08:36:27;;;;;;;;;22.75;18.75;;;;;11.03;87.35;102276.34;5058258;28;45541;-71
2022/01/01 08:38:52;;;;;;;;;18.75;16.00;;;;;11.15;87.14;102274.31;5057138;28;45549;-71
2022/01/01 08:41:18;;;;;;;;;21.75;19.25;;;;;11.31;87.23;102274.84;5053648;28;49896;-71
2022/01/01 08:43:43;;;;;;;;;19.75;17.25;;;;;11.53;86.81;102275.22;5055391;28;55455;-71
2022/01/01 08:46:08;;;;;;;;;23.67;16.67;;;;;11.72;86.40;102273.94;5062302;28;53099;-71
2022/01/01 08:48:34;;;;;;;;;20.50;19.00;;;;;11.86;85.79;102271.00;5038911;28;45622;-71
2022/01/01 08:51:10;;;;;;;;;19.00;15.50;;;;;12.14;85.50;102273.84;5060115;28;45466;-71
2022/01/01 08:53:35;;;;;;;;;16.25;14.50;;;;;12.38;84.83;102280.25;5062339;28;45906;-71
2022/01/01 08:56:02;;;;;;;;;21.25;18.25;;;;;12.51;84.39;102270.25;5057013;28;45444;-71
2022/01/01 08:58:27;;;;;;;;;23.25;18.00;;;;;12.64;83.91;102271.66;5055621;28;45392;-71
2022/01/01 09:00:53;;;;;;;;;17.50;14.00;;;;;12.90;83.65;102273.59;5057083;28;45501;-71
2022/01/01 09:03:18;;;;;;;;;17.00;15.50;;;;;13.13;83.12;102265.00;5059145;28;47816;-71
2022/01/01 09:05:44;;;;;;;;;22.00;17.50;;;;;13.32;82.33;102270.66;5055410;28;45666;-71
2022/01/01 09:08:09;;;;;;;;;21.50;15.00;;;;;13.46;81.94;102259.66;5066795;28;47213;-71
2022/01/01 09:10:34;;;;;;;;;21.25;14.50;;;;;13.61;81.29;102271.53;5053019;28;60858;-71
2022/01/01 09:12:59;;;;;;;;;18.25;15.75;;;;;13.67;80.50;102266.91;5055996;28;45360;-71
2022/01/01 09:15:25;;;;;;;;;17.00;15.25;;;;;13.79;80.75;102268.31;5054613;28;47581;-71
2022/01/01 09:17:50;;;;;;;;;16.25;14.25;;;;;14.09;80.55;102274.34;5054127;28;46886;-71
2022/01/01 09:20:16;;;;;;;;;18.00;12.50;;;;;14.37;80.27;102274.31;5054575;28;46546;-71
2022/01/01 09:22:41;;;;;;;;;18.50;17.00;;;;;14.54;79.53;102271.13;5062819;28;45550;-71
2022/01/01 09:25:07;;;;;;;;;13.75;12.75;;;;;14.77;79.28;102265.88;5057344;28;45481;-71
2022/01/01 09:27:32;;;;;;;;;15.00;13.00;;;;;15.07;78.08;102250.63;5056588;28;45645;-71
2022/01/01 09:29:57;;;;;;;;;15.50;13.50;;;;;15.51;77.77;102253.38;5055516;28;45529;-71
2022/01/01 09:32:23;;;;;;;;;16.75;14.00;;;;;16.05;77.26;102241.47;5058082;28;45501;-71
2022/01/01 09:34:48;;;;;;;;;16.50;14.75;;;;;17.16;75.36;102250.75;5054462;28;45405;-71
2022/01/01 09:37:13;;;;;;;;;16.50;14.25;;;;;18.20;74.10;102245.72;5063785;28;45486;-71
2022/01/01 09:39:39;;;;;;;;;16.25;13.00;;;;;19.19;71.76;102245.78;5045101;28;47380;-71
2022/01/01 09:42:05;;;;;;;;;16.00;14.00;;;;;19.84;68.95;102237.72;5059658;28;45406;-71
2022/01/01 09:44:36;;;;;;;;;15.75;12.50;;;;;20.24;67.27;102225.53;5058885;28;45440;-71
2022/01/01 09:47:01;;;;;;;;;14.50;12.25;;;;;20.64;66.41;102227.63;5062690;28;45703;-71
2022/01/01 09:49:27;;;;;;;;;17.00;12.50;;;;;20.70;65.95;102220.09;5056615;28;45940;-71
2022/01/01 09:51:52;;;;;;;;;15.25;14.00;;;;;21.04;64.30;102221.53;5055617;28;45438;-71
2022/01/01 09:54:17;;;;;;;;;13.25;11.00;;;;;21.32;64.09;102214.44;5056142;28;45502;-72
2022/01/01 09:56:43;;;;;;;;;13.00;10.00;;;;;21.61;62.90;102225.88;5061556;28;45495;-72
2022/01/01 09:59:08;;;;;;;;;12.75;11.00;;;;;21.93;62.53;102228.25;5059153;28;46404;-72
2022/01/01 10:01:34;;;;;;;;;17.00;13.75;;;;;22.52;62.17;102242.09;5057681;28;45501;-71
2022/01/01 10:03:59;;;;;;;;;13.00;11.25;;;;;22.90;59.29;102234.03;5068570;28;45497;-72
2022/01/01 10:06:29;;;;;;;;;13.25;13.25;;;;;23.06;58.25;102226.63;5054991;28;45429;-72
2022/01/01 10:08:59;;;;;;;;;14.00;13.25;;;;;23.08;58.78;102219.34;5044083;28;45831;-72
2022/01/01 10:11:25;;;;;;;;;15.50;14.00;;;;;22.96;58.16;102220.19;5035561;28;45582;-72
2022/01/01 10:13:51;;;;;;;;;15.75;14.50;;;;;22.69;58.27;102209.59;5046057;28;45536;-72
2022/01/01 10:16:16;;;;;;;;;15.00;12.00;;;;;22.24;57.99;102225.25;5048498;28;45720;-72
2022/01/01 10:18:47;;;;;;;;;14.25;12.00;;;;;21.57;57.93;102206.53;5035828;28;45679;-72
2022/01/01 10:21:19;;;;;;;;;13.50;10.50;;;;;21.14;59.37;102232.47;5044599;28;45589;-72
2022/01/01 10:23:49;;;;;;;;;9.75;9.00;;;;;20.74;59.59;102226.13;5041891;28;45580;-72
2022/01/01 10:29:10;;;;;;;;;15.50;10.00;;;;;19.61;60.86;102235.50;5033770;28;45474;-72
2022/01/01 10:31:37;;;;;;;;;8.00;8.00;;;;;19.14;60.73;102228.34;5049716;28;45892;-72
2022/01/01 10:34:11;;;;;;;;;10.75;10.50;;;;;18.51;61.60;102207.72;5041463;28;45928;-72
2022/01/01 10:36:36;;;;;;;;;10.75;8.75;;;;;18.09;61.96;102218.81;5046007;28;45537;-72
2022/01/01 10:39:09;;;;;;;;;8.00;8.00;;;;;17.84;62.90;102212.06;5046250;28;45442;-72
2022/01/01 10:41:47;;;;;;;;;11.25;9.25;;;;;17.53;63.43;102209.16;5042928;28;45435;-72
2022/01/01 10:44:13;;;;;;;;;10.75;9.75;;;;;17.29;63.39;102221.84;5037414;28;45590;-72
2022/01/01 10:46:39;;;;;;;;;10.00;9.00;;;;;17.09;64.32;102222.78;5051843;28;45420;-74
2022/01/01 10:50:13;;;;;;;;;10.00;9.00;;;;;16.89;64.05;102226.34;5063843;28;45517;-71
2022/01/01 10:52:23;;;;;;;;;10.00;6.00;;;;;16.67;64.83;102224.63;5046905;28;45585;-71
2022/01/01 10:55:07;;;;;;;;;11.00;10.00;;;;;16.52;65.04;102224.44;5054034;28;45799;-71
2022/01/01 10:57:38;;;;;;;;;9.25;8.00;;;;;16.37;65.22;102225.97;5044571;28;45558;-71
2022/01/01 11:00:17;;;;;;;;;8.00;6.00;;;;;16.33;66.08;102222.56;5043971;28;46506;-72
2022/01/01 11:02:59;;;;;;;;;9.75;9.75;;;;;16.20;65.95;102220.53;5041558;28;45411;-70
2022/01/01 11:05:30;;;;;;;;;6.50;6.50;;;;;15.98;66.36;102212.63;5055633;28;45642;-71
2022/01/01 11:07:56;;;;;;;;;10.75;8.00;;;;;15.85;66.63;102220.22;5061532;28;45518;-71
2022/01/01 11:10:23;;;;;;;;;9.75;6.75;;;;;15.67;66.75;102224.50;5057247;27;45557;-71